Time;durP1;ratioP1;P1;durP2;ratioP2;P2;SDS_P1;SDS_P2;PMS_P1;PMS_P2;Temp;Humidity;BMP_temperature;BMP_pressure;BME280_temperature;BME280_humidity;BME280_pressure;Samples;Min_cycle;Max_cycle;Signal;HPM_P1;HPM_P2
2023/12/16 00:01:01;;;;;;;43.93;9.87;;;6.90;1.00;;;;;;5096547;28;20192;-51
2023/12/16 00:03:27;;;;;;;39.87;10.60;;;6.90;1.00;;;;;;5098445;28;20271;-52
2023/12/16 00:05:53;;;;;;;37.03;9.53;;;6.90;1.00;;;;;;5097947;28;20228;-52
2023/12/16 00:08:19;;;;;;;47.60;10.27;;;6.80;1.00;;;;;;5097563;28;20413;-52
2023/12/16 00:10:45;;;;;;;32.63;8.87;;;6.80;1.00;;;;;;5097489;28;20472;-52
2023/12/16 00:13:11;;;;;;;38.27;9.37;;;6.90;1.00;;;;;;5097831;28;20577;-52
2023/12/16 00:15:37;;;;;;;36.33;10.30;;;6.90;1.00;;;;;;5097543;28;20505;-52
2023/12/16 00:18:03;;;;;;;45.73;9.67;;;6.90;1.00;;;;;;5097329;28;20272;-52
2023/12/16 00:20:28;;;;;;;37.47;9.23;;;6.90;1.00;;;;;;5097532;28;20185;-52
2023/12/16 00:22:54;;;;;;;30.57;10.13;;;6.90;1.00;;;;;;5097539;28;20419;-52
2023/12/16 00:25:20;;;;;;;25.70;9.00;;;6.80;1.00;;;;;;5098598;28;20184;-52
2023/12/16 00:27:45;;;;;;;38.90;8.80;;;6.80;1.00;;;;;;5097511;28;20177;-52
2023/12/16 00:30:11;;;;;;;25.00;9.20;;;6.70;1.00;;;;;;5093433;28;20663;-52
2023/12/16 00:32:39;;;;;;;38.93;9.70;;;6.80;4.90;;;;;;5094479;28;20217;-52
2023/12/16 00:35:07;;;;;;;38.00;10.00;;;6.70;1.00;;;;;;5094163;28;20642;-52
2023/12/16 00:37:33;;;;;;;27.93;10.13;;;6.80;1.00;;;;;;5093674;28;20414;-52
2023/12/16 00:39:58;;;;;;;29.00;9.70;;;6.70;1.00;;;;;;5094638;28;20415;-52
2023/12/16 00:42:24;;;;;;;21.97;9.37;;;6.70;8.30;;;;;;5094872;28;20509;-52
2023/12/16 00:44:49;;;;;;;28.57;9.13;;;6.60;5.90;;;;;;5094225;28;20196;-52
2023/12/16 00:47:15;;;;;;;31.33;9.17;;;6.70;20.50;;;;;;5093356;28;20238;-52
2023/12/16 00:49:40;;;;;;;28.47;9.57;;;6.60;16.90;;;;;;5093683;28;20233;-52
2023/12/16 00:52:06;;;;;;;27.47;8.87;;;6.60;27.90;;;;;;5094553;28;20209;-52
2023/12/16 00:54:31;;;;;;;26.80;9.80;;;6.60;29.80;;;;;;5094566;28;20175;-52
2023/12/16 00:56:57;;;;;;;38.07;9.53;;;6.50;24.00;;;;;;5093856;28;20223;-52
2023/12/16 00:59:23;;;;;;;31.77;9.60;;;6.50;39.80;;;;;;5093726;28;20189;-52
2023/12/16 01:01:49;;;;;;;32.67;10.13;;;6.50;59.30;;;;;;5093484;28;20188;-51
2023/12/16 01:04:14;;;;;;;49.80;9.93;;;6.50;58.90;;;;;;5093865;28;20180;-52
2023/12/16 01:06:40;;;;;;;25.63;9.70;;;6.50;60.60;;;;;;5093780;28;20779;-51
2023/12/16 01:09:06;;;;;;;35.47;9.30;;;6.50;68.80;;;;;;5093861;28;20181;-51
2023/12/16 01:11:31;;;;;;;41.40;9.07;;;6.60;63.30;;;;;;5092452;28;20306;-51
2023/12/16 01:13:57;;;;;;;29.23;8.77;;;6.50;39.30;;;;;;5093327;28;20667;-51
2023/12/16 01:16:22;;;;;;;37.50;8.90;;;6.50;53.00;;;;;;5093811;28;20697;-51
2023/12/16 01:18:48;;;;;;;45.43;8.93;;;6.50;63.90;;;;;;5094090;28;20271;-51
2023/12/16 01:21:15;;;;;;;26.90;8.70;;;6.50;76.40;;;;;;5093582;28;20174;-51
2023/12/16 01:23:40;;;;;;;36.77;9.00;;;6.50;76.70;;;;;;5092596;28;20422;-52
2023/12/16 01:26:06;;;;;;;31.30;9.63;;;6.50;85.70;;;;;;5092709;28;20424;-51
2023/12/16 01:28:31;;;;;;;35.10;9.27;;;6.50;79.90;;;;;;5093346;28;20179;-51
2023/12/16 01:30:57;;;;;;;35.20;8.30;;;6.50;68.80;;;;;;5093831;28;20216;-51
2023/12/16 01:33:23;;;;;;;29.67;8.00;;;6.50;49.40;;;;;;5092895;28;20218;-52
2023/12/16 01:35:49;;;;;;;25.37;8.33;;;6.50;49.30;;;;;;5092981;28;20638;-51
2023/12/16 01:38:14;;;;;;;27.90;7.50;;;6.50;49.50;;;;;;5093263;28;20416;-51
2023/12/16 01:40:40;;;;;;;35.87;7.60;;;6.40;56.00;;;;;;5092591;28;20186;-51
2023/12/16 01:43:07;;;;;;;20.97;7.30;;;6.50;81.20;;;;;;5093151;28;20217;-52
2023/12/16 01:45:32;;;;;;;29.20;7.80;;;6.50;34.50;;;;;;5093459;28;20181;-52
2023/12/16 01:47:59;;;;;;;36.40;7.87;;;6.50;28.90;;;;;;5092461;28;20422;-52
2023/12/16 01:50:26;;;;;;;41.87;7.90;;;6.50;10.60;;;;;;5092083;28;20192;-51
2023/12/16 01:52:52;;;;;;;29.33;6.90;;;6.50;1.50;;;;;;5093329;28;20469;-52
2023/12/16 01:55:19;;;;;;;30.23;7.57;;;6.50;1.00;;;;;;5093386;28;20422;-51
2023/12/16 01:57:45;;;;;;;24.90;7.30;;;6.60;1.00;;;;;;5092145;28;20418;-52
2023/12/16 02:00:11;;;;;;;23.87;7.40;;;6.60;1.00;;;;;;5092735;28;20409;-52
2023/12/16 02:02:38;;;;;;;23.50;8.07;;;6.60;1.00;;;;;;5092564;28;20284;-52
2023/12/16 02:05:04;;;;;;;33.00;8.00;;;6.60;1.00;;;;;;5092957;28;20899;-52
2023/12/16 02:07:29;;;;;;;29.20;7.87;;;6.50;1.00;;;;;;5092002;28;20472;-52
2023/12/16 02:09:55;;;;;;;34.03;8.03;;;6.60;1.00;;;;;;5092411;28;20966;-52
2023/12/16 02:12:21;;;;;;;25.73;7.43;;;6.50;1.00;;;;;;5092343;28;20213;-52
2023/12/16 02:14:47;;;;;;;28.57;9.40;;;6.60;1.00;;;;;;5092780;28;20492;-51
2023/12/16 02:17:13;;;;;;;24.30;6.60;;;6.60;1.00;;;;;;5092259;28;20433;-52
2023/12/16 02:19:41;;;;;;;28.73;7.40;;;6.60;1.00;;;;;;5092938;28;20175;-52
2023/12/16 02:22:07;;;;;;;19.17;6.50;;;6.60;1.00;;;;;;5091432;28;20241;-52
2023/12/16 02:24:36;;;;;;;35.83;7.50;;;6.60;1.00;;;;;;5091651;28;20414;-52
2023/12/16 02:27:02;;;;;;;31.63;6.20;;;6.60;1.00;;;;;;5092335;28;20184;-52
2023/12/16 02:29:27;;;;;;;28.10;6.87;;;6.60;1.00;;;;;;5092795;28;20474;-52
2023/12/16 02:31:53;;;;;;;26.93;6.63;;;6.70;1.00;;;;;;5091601;28;20226;-52
2023/12/16 02:34:19;;;;;;;19.43;5.47;;;6.70;1.00;;;;;;5091770;28;20178;-52
2023/12/16 02:36:44;;;;;;;24.10;5.40;;;6.70;1.00;;;;;;5092390;28;20181;-52
2023/12/16 02:39:10;;;;;;;22.50;5.80;;;6.70;1.00;;;;;;5092554;28;20185;-51
2023/12/16 02:41:35;;;;;;;25.80;6.73;;;6.80;99.90;;;;;;5092544;28;20182;-52
2023/12/16 02:44:01;;;;;;;30.07;6.80;;;6.80;99.90;;;;;;5091320;28;20650;-53
2023/12/16 02:46:26;;;;;;;32.50;6.07;;;6.80;99.90;;;;;;5090640;28;20261;-50
2023/12/16 02:48:52;;;;;;;19.67;5.03;;;6.80;99.90;;;;;;5092167;28;20182;-51
2023/12/16 02:51:20;;;;;;;27.13;5.97;;;6.80;42.80;;;;;;5092313;28;20185;-51
2023/12/16 02:53:46;;;;;;;25.10;5.00;;;6.90;1.00;;;;;;5091176;28;20235;-51
2023/12/16 02:56:12;;;;;;;14.67;4.37;;;6.90;1.00;;;;;;5091144;28;20422;-51
2023/12/16 02:58:39;;;;;;;12.00;4.57;;;6.80;1.00;;;;;;5091972;28;20272;-52
2023/12/16 03:01:04;;;;;;;20.23;5.07;;;6.80;1.00;;;;;;5091315;28;21119;-51
2023/12/16 03:03:30;;;;;;;21.20;4.67;;;6.80;1.00;;;;;;5091597;28;20421;-52
2023/12/16 03:05:55;;;;;;;19.10;4.80;;;6.90;99.90;;;;;;5091976;28;20236;-51
2023/12/16 03:08:21;;;;;;;17.80;4.30;;;6.90;99.90;;;;;;5091604;28;20172;-51
2023/12/16 03:10:46;;;;;;;14.60;4.63;;;6.90;99.90;;;;;;5091270;28;20195;-52
2023/12/16 03:13:12;;;;;;;16.23;4.27;;;6.90;1.00;;;;;;5091244;28;20547;-52
2023/12/16 03:15:38;;;;;;;20.90;3.90;;;6.90;1.00;;;;;;5092048;28;20586;-52
2023/12/16 03:18:04;;;;;;;11.23;3.77;;;6.90;1.00;;;;;;5092153;28;20192;-51
2023/12/16 03:20:29;;;;;;;14.43;4.10;;;7.00;99.90;;;;;;5091019;28;20414;-51
2023/12/16 03:22:55;;;;;;;15.40;4.27;;;7.00;1.00;;;;;;5091273;28;20194;-51
2023/12/16 03:25:22;;;;;;;16.67;4.70;;;7.00;1.00;;;;;;5091805;28;20245;-51
2023/12/16 03:27:47;;;;;;;15.97;3.87;;;7.00;99.90;;;;;;5091760;28;20191;-51
2023/12/16 03:30:13;;;;;;;12.87;5.20;;;7.00;99.90;;;;;;5091912;28;20414;-51
2023/12/16 03:32:39;;;;;;;18.77;4.10;;;7.10;1.00;;;;;;5090760;28;20219;-51
2023/12/16 03:35:05;;;;;;;15.73;4.00;;;7.10;1.00;;;;;;5091634;28;20266;-51
2023/12/16 03:37:31;;;;;;;16.07;3.70;;;7.10;99.90;;;;;;5091215;28;20189;-51
2023/12/16 03:39:56;;;;;;;18.73;4.80;;;7.10;1.00;;;;;;5091613;28;20410;-51
2023/12/16 03:42:22;;;;;;;13.43;3.73;;;7.10;99.90;;;;;;5091292;28;20182;-52
2023/12/16 03:44:47;;;;;;;17.00;3.70;;;7.10;1.00;;;;;;5091131;28;20209;-52
2023/12/16 03:47:13;;;;;;;12.60;4.33;;;7.10;99.90;;;;;;5090946;28;20654;-52
2023/12/16 03:49:40;;;;;;;14.10;4.30;;;7.10;1.00;;;;;;5091128;28;20177;-51
2023/12/16 03:52:05;;;;;;;20.43;3.63;;;7.10;1.00;;;;;;5091431;28;20217;-53
2023/12/16 03:54:31;;;;;;;11.97;3.80;;;7.10;1.00;;;;;;5091114;28;20965;-52
2023/12/16 03:56:57;;;;;;;13.80;4.27;;;7.10;99.90;;;;;;5090507;28;20184;-53
2023/12/16 03:59:23;;;;;;;19.93;4.40;;;7.10;99.90;;;;;;5091543;28;20203;-53
2023/12/16 04:01:48;;;;;;;13.07;4.20;;;7.20;6.00;;;;;;5091222;28;20413;-52
2023/12/16 04:04:14;;;;;;;9.17;3.30;;;7.20;87.20;;;;;;5092601;28;20228;-52
2023/12/16 04:06:39;;;;;;;15.00;4.50;;;7.10;99.90;;;;;;5094648;28;20315;-52
2023/12/16 04:09:05;;;;;;;13.60;4.20;;;7.20;99.90;;;;;;5094530;28;20642;-52
2023/12/16 04:11:30;;;;;;;16.07;4.47;;;7.20;1.00;;;;;;5094486;28;20183;-52
2023/12/16 04:13:56;;;;;;;9.57;3.90;;;7.20;94.40;;;;;;5095076;28;20181;-52
2023/12/16 04:16:21;;;;;;;16.70;4.33;;;7.20;99.90;;;;;;5095495;28;20235;-53
2023/12/16 04:18:47;;;;;;;19.63;4.80;;;7.30;1.00;;;;;;5093966;28;20188;-52
2023/12/16 04:21:13;;;;;;;14.30;3.67;;;7.30;99.90;;;;;;5094510;28;20187;-52
2023/12/16 04:23:39;;;;;;;18.33;4.40;;;7.30;99.90;;;;;;5094707;28;20216;-52
2023/12/16 04:26:04;;;;;;;14.93;3.97;;;7.30;99.90;;;;;;5094205;28;20229;-52
2023/12/16 04:28:30;;;;;;;14.00;3.90;;;7.20;99.90;;;;;;5094564;28;20264;-52
2023/12/16 04:30:55;;;;;;;11.30;3.90;;;7.20;1.00;;;;;;5094665;28;20646;-52
2023/12/16 04:33:21;;;;;;;10.70;4.27;;;7.30;99.90;;;;;;5094409;28;20295;-52
2023/12/16 04:35:46;;;;;;;16.63;5.03;;;7.30;99.90;;;;;;5093966;28;20195;-52
2023/12/16 04:38:12;;;;;;;17.23;4.77;;;7.30;1.00;;;;;;5094042;28;20271;-52
2023/12/16 04:40:37;;;;;;;14.50;4.40;;;7.30;1.00;;;;;;5094759;28;20180;-52
2023/12/16 04:43:03;;;;;;;20.97;4.50;;;7.20;1.00;;;;;;5094573;28;20258;-53
2023/12/16 04:45:28;;;;;;;14.97;4.10;;;7.20;1.00;;;;;;5094023;28;20192;-53
2023/12/16 04:47:54;;;;;;;15.70;4.73;;;7.20;1.00;;;;;;5093487;28;20185;-53
2023/12/16 04:50:19;;;;;;;16.77;4.77;;;7.10;60.70;;;;;;5094584;28;20246;-51
2023/12/16 04:52:45;;;;;;;11.07;4.40;;;7.10;1.00;;;;;;5094007;28;20764;-53
2023/12/16 04:55:11;;;;;;;14.20;4.03;;;7.10;1.00;;;;;;5094749;28;20693;-53
2023/12/16 04:57:36;;;;;;;11.77;3.97;;;7.10;53.10;;;;;;5093590;28;20201;-53
2023/12/16 05:00:04;;;;;;;12.97;4.20;;;7.10;1.00;;;;;;5093268;28;20541;-51
2023/12/16 05:02:30;;;;;;;18.50;4.27;;;7.00;99.90;;;;;;5094415;28;20538;-51
2023/12/16 05:04:56;;;;;;;12.07;4.30;;;7.00;99.90;;;;;;5093815;28;20423;-51
2023/12/16 05:07:21;;;;;;;15.30;4.23;;;7.00;99.90;;;;;;5094192;28;20238;-51
2023/12/16 05:09:47;;;;;;;14.60;4.23;;;7.00;99.90;;;;;;5093845;28;20173;-51
2023/12/16 05:12:13;;;;;;;9.47;4.00;;;7.00;1.00;;;;;;5093102;28;20213;-51
2023/12/16 05:14:41;;;;;;;14.13;4.40;;;7.10;1.00;;;;;;5093954;28;20215;-51
2023/12/16 05:17:07;;;;;;;11.93;4.53;;;7.20;99.90;;;;;;5092593;28;20622;-51
2023/12/16 05:19:32;;;;;;;13.10;4.57;;;7.20;99.90;;;;;;5093573;28;20419;-51
2023/12/16 05:21:58;;;;;;;21.60;4.97;;;7.20;1.00;;;;;;5093672;28;20592;-51
2023/12/16 05:24:23;;;;;;;22.43;4.60;;;7.20;99.90;;;;;;5093554;28;20219;-51
2023/12/16 05:26:50;;;;;;;12.37;4.40;;;7.20;99.90;;;;;;5093038;28;20177;-52
2023/12/16 05:29:15;;;;;;;11.53;4.27;;;7.20;1.00;;;;;;5093463;28;20234;-52
2023/12/16 05:31:41;;;;;;;10.63;3.50;;;7.30;1.00;;;;;;5093015;28;20576;-52
2023/12/16 05:34:07;;;;;;;16.87;4.10;;;7.20;99.90;;;;;;5093226;28;20185;-52
2023/12/16 05:36:32;;;;;;;10.30;3.77;;;7.20;1.00;;;;;;5092965;28;20185;-52
2023/12/16 05:38:58;;;;;;;15.80;3.70;;;7.20;99.90;;;;;;5092613;28;20185;-52
2023/12/16 05:41:23;;;;;;;11.27;3.30;;;7.30;99.90;;;;;;5092784;28;20183;-52
2023/12/16 05:43:49;;;;;;;9.27;3.80;;;7.30;99.90;;;;;;5093696;28;20180;-51
2023/12/16 05:46:14;;;;;;;13.37;3.97;;;7.30;99.10;;;;;;5092952;28;20176;-52
2023/12/16 05:48:40;;;;;;;17.90;3.57;;;7.30;99.90;;;;;;5092566;28;20511;-51
2023/12/16 05:51:06;;;;;;;6.43;3.20;;;7.30;7.90;;;;;;5092442;28;20227;-51
2023/12/16 05:53:34;;;;;;;12.43;3.23;;;7.30;1.00;;;;;;5093504;28;20211;-51
2023/12/16 05:55:59;;;;;;;18.10;3.43;;;7.20;1.00;;;;;;5093544;28;20652;-52
2023/12/16 05:58:25;;;;;;;13.07;3.70;;;7.20;99.90;;;;;;5092357;28;20399;-52
2023/12/16 06:00:51;;;;;;;12.70;3.50;;;7.10;99.90;;;;;;5091956;28;20552;-51
2023/12/16 06:03:16;;;;;;;10.63;3.77;;;7.10;99.90;;;;;;5092845;28;20188;-51
2023/12/16 06:05:42;;;;;;;14.90;3.90;;;7.10;99.90;;;;;;5092726;28;20233;-52
2023/12/16 06:08:07;;;;;;;9.00;3.23;;;7.10;62.80;;;;;;5093165;28;20227;-51
2023/12/16 06:10:33;;;;;;;9.57;3.00;;;7.10;28.00;;;;;;5091090;28;20248;-51
2023/12/16 06:12:58;;;;;;;8.73;2.73;;;7.10;1.00;;;;;;5092839;28;20250;-51
2023/12/16 06:15:25;;;;;;;14.47;3.80;;;7.20;1.00;;;;;;5092659;28;20664;-51
2023/12/16 06:17:50;;;;;;;9.07;3.60;;;7.10;1.00;;;;;;5093119;28;20179;-51
2023/12/16 06:20:16;;;;;;;21.43;3.70;;;7.20;99.90;;;;;;5091569;28;20911;-51
2023/12/16 06:22:42;;;;;;;12.90;3.40;;;7.20;99.90;;;;;;5092435;28;20193;-51
2023/12/16 06:25:08;;;;;;;10.30;3.30;;;7.10;99.90;;;;;;5092240;28;20765;-51
2023/12/16 06:27:33;;;;;;;10.23;3.77;;;7.10;1.00;;;;;;5091523;28;20175;-51
2023/12/16 06:29:59;;;;;;;11.20;2.93;;;7.10;99.90;;;;;;5091668;28;20259;-51
2023/12/16 06:32:25;;;;;;;16.47;3.40;;;7.10;99.90;;;;;;5091717;28;20689;-50
2023/12/16 06:34:50;;;;;;;11.73;3.27;;;7.10;1.00;;;;;;5092372;28;20237;-51
2023/12/16 06:37:16;;;;;;;12.83;3.50;;;7.10;1.00;;;;;;5091825;28;20180;-50
2023/12/16 06:39:41;;;;;;;9.30;2.80;;;7.20;99.90;;;;;;5092598;28;20210;-51
2023/12/16 06:42:07;;;;;;;9.00;2.77;;;7.10;99.90;;;;;;5092000;28;20185;-51
2023/12/16 06:44:33;;;;;;;11.53;3.13;;;7.10;1.00;;;;;;5091448;28;20229;-51
2023/12/16 06:46:58;;;;;;;10.80;3.20;;;7.10;99.90;;;;;;5092573;28;20414;-51
2023/12/16 06:49:24;;;;;;;10.33;3.40;;;7.10;99.90;;;;;;5091907;28;20660;-51
2023/12/16 06:51:50;;;;;;;5.70;2.90;;;7.10;1.00;;;;;;5092093;28;20702;-51
2023/12/16 06:54:16;;;;;;;12.50;3.63;;;7.00;1.00;;;;;;5091307;28;20273;-52
2023/12/16 06:56:41;;;;;;;19.10;4.07;;;7.00;1.00;;;;;;5091951;28;20510;-51
2023/12/16 06:59:07;;;;;;;12.70;3.33;;;7.00;1.00;;;;;;5092693;28;20189;-51
2023/12/16 07:01:32;;;;;;;17.53;3.63;;;7.10;1.00;;;;;;5091452;28;20220;-51
2023/12/16 07:03:58;;;;;;;13.83;4.10;;;7.20;99.90;;;;;;5092056;28;20173;-52
2023/12/16 07:06:23;;;;;;;7.73;3.40;;;7.10;99.90;;;;;;5090014;28;20598;-52
2023/12/16 07:08:49;;;;;;;15.77;3.93;;;7.10;1.00;;;;;;5092179;28;20634;-51
2023/12/16 07:11:15;;;;;;;12.90;4.50;;;7.10;1.00;;;;;;5092006;28;20179;-53
2023/12/16 07:13:41;;;;;;;21.60;4.47;;;7.10;1.00;;;;;;5091018;28;20602;-51
2023/12/16 07:16:07;;;;;;;13.87;3.80;;;7.20;1.00;;;;;;5091313;28;20637;-52
2023/12/16 07:18:33;;;;;;;13.23;4.20;;;7.20;1.00;;;;;;5091451;28;20420;-51
2023/12/16 07:20:58;;;;;;;15.60;3.83;;;7.10;1.00;;;;;;5091097;28;20419;-52
2023/12/16 07:23:24;;;;;;;19.10;4.50;;;7.20;1.00;;;;;;5090822;28;20616;-52
2023/12/16 07:25:53;;;;;;;12.33;3.90;;;7.20;1.00;;;;;;5091794;28;20183;-52
2023/12/16 07:28:21;;;;;;;17.10;5.00;;;7.20;1.00;;;;;;5090491;28;20710;-52
2023/12/16 07:30:46;;;;;;;23.00;4.10;;;7.20;1.00;;;;;;5091760;28;20921;-51
2023/12/16 07:33:12;;;;;;;14.13;4.10;;;7.20;1.00;;;;;;5091640;28;20478;-51
2023/12/16 07:35:38;;;;;;;16.47;4.50;;;7.20;1.00;;;;;;5091070;28;20182;-52
2023/12/16 07:38:04;;;;;;;23.50;4.50;;;7.30;99.90;;;;;;5090885;28;20185;-51
2023/12/16 07:40:31;;;;;;;12.83;4.00;;;7.30;99.90;;;;;;5095032;28;20531;-51
2023/12/16 07:42:57;;;;;;;15.47;4.00;;;7.30;1.00;;;;;;5094560;28;20183;-52
2023/12/16 07:45:22;;;;;;;13.47;3.47;;;7.40;1.00;;;;;;5094790;28;20430;-52
2023/12/16 07:47:48;;;;;;;8.57;3.70;;;7.40;99.90;;;;;;5094998;28;20619;-52
2023/12/16 07:50:16;;;;;;;12.30;3.97;;;7.50;57.20;;;;;;5093593;28;20642;-51
2023/12/16 07:52:41;;;;;;;16.93;3.87;;;7.40;99.90;;;;;;5094729;28;20223;-52
2023/12/16 07:55:07;;;;;;;14.57;3.70;;;7.40;99.90;;;;;;5094840;28;20516;-51
2023/12/16 07:57:33;;;;;;;13.73;4.57;;;7.40;1.00;;;;;;5094412;28;20235;-52
2023/12/16 07:59:58;;;;;;;13.77;4.10;;;7.50;1.00;;;;;;5094282;28;20404;-51
2023/12/16 08:02:24;;;;;;;14.87;3.87;;;7.40;99.90;;;;;;5095191;28;20203;-52
2023/12/16 08:04:52;;;;;;;19.13;5.37;;;7.40;99.90;;;;;;5095300;28;20172;-51
2023/12/16 08:07:17;;;;;;;15.30;4.20;;;7.40;99.90;;;;;;5094371;28;20731;-51
2023/12/16 08:09:43;;;;;;;14.93;4.83;;;7.40;1.00;;;;;;5095089;28;20442;-52
2023/12/16 08:12:08;;;;;;;18.77;4.80;;;7.40;99.90;;;;;;5093833;28;20249;-51
2023/12/16 08:14:34;;;;;;;19.10;4.23;;;7.40;99.90;;;;;;5095110;28;20262;-51
2023/12/16 08:17:00;;;;;;;15.90;4.47;;;7.40;99.90;;;;;;5094229;28;20190;-51
2023/12/16 08:19:25;;;;;;;18.00;5.40;;;7.40;99.90;;;;;;5095336;28;20188;-51
2023/12/16 08:21:51;;;;;;;18.70;4.50;;;7.40;1.00;;;;;;5094580;28;20189;-51
2023/12/16 08:24:16;;;;;;;13.90;4.37;;;7.40;1.00;;;;;;5095104;28;20183;-51
2023/12/16 08:26:42;;;;;;;16.03;4.60;;;7.40;27.60;;;;;;5094225;28;20175;-52
2023/12/16 08:29:08;;;;;;;18.27;4.73;;;7.40;82.10;;;;;;5093777;28;20182;-51
2023/12/16 08:31:35;;;;;;;19.53;4.67;;;7.40;99.90;;;;;;5094631;28;20182;-51
2023/12/16 08:34:00;;;;;;;29.03;5.93;;;7.40;1.00;;;;;;5093694;28;20813;-50
2023/12/16 08:36:26;;;;;;;20.53;5.50;;;7.40;1.00;;;;;;5093873;28;20431;-52
2023/12/16 08:38:51;;;;;;;20.03;5.90;;;7.50;99.90;;;;;;5095183;28;20638;-52
2023/12/16 08:41:17;;;;;;;15.23;4.40;;;7.50;99.90;;;;;;5094810;28;20213;-53
2023/12/16 08:43:43;;;;;;;18.17;5.23;;;7.40;99.90;;;;;;5094770;28;20184;-51
2023/12/16 08:46:08;;;;;;;11.93;5.60;;;7.40;1.00;;;;;;5093973;28;20550;-51
2023/12/16 08:48:38;;;;;;;16.97;5.60;;;7.50;1.00;;;;;;5094303;28;20524;-51
2023/12/16 08:51:04;;;;;;;23.90;6.27;;;7.50;1.00;;;;;;5092526;28;20669;-51
2023/12/16 08:53:30;;;;;;;21.07;5.90;;;7.50;1.00;;;;;;5094711;28;20463;-51
2023/12/16 08:55:55;;;;;;;22.30;7.20;;;7.50;99.90;;;;;;5094055;28;20458;-52
2023/12/16 08:58:21;;;;;;;19.00;6.27;;;7.40;99.90;;;;;;5094433;28;20185;-51
2023/12/16 09:00:48;;;;;;;21.47;7.50;;;7.40;1.00;;;;;;5092953;28;20595;-52
2023/12/16 09:03:14;;;;;;;11.40;6.77;;;7.40;1.00;;;;;;5094005;28;20192;-51
2023/12/16 09:05:41;;;;;;;14.93;6.90;;;7.30;99.90;;;;;;5094050;28;20472;-51
2023/12/16 09:08:06;;;;;;;30.30;8.03;;;7.30;99.90;;;;;;5093789;28;20403;-50
2023/12/16 09:10:33;;;;;;;19.23;7.87;;;7.30;1.00;;;;;;5093333;28;20415;-52
2023/12/16 09:12:59;;;;;;;23.40;8.53;;;7.30;1.00;;;;;;5094036;28;20298;-52
2023/12/16 09:15:24;;;;;;;18.90;9.27;;;7.30;71.20;;;;;;5093306;28;20419;-52
2023/12/16 09:17:50;;;;;;;29.33;8.83;;;7.20;99.90;;;;;;5093545;28;20182;-51
2023/12/16 09:20:16;;;;;;;18.73;8.40;;;7.20;99.90;;;;;;5093369;28;20182;-52
2023/12/16 09:22:42;;;;;;;22.00;8.80;;;7.20;1.00;;;;;;5093612;28;20217;-52
2023/12/16 09:25:08;;;;;;;17.47;10.03;;;7.20;1.00;;;;;;5093172;28;20874;-51
2023/12/16 09:27:35;;;;;;;25.80;10.20;;;7.20;1.00;;;;;;5093525;28;20188;-52
2023/12/16 09:30:00;;;;;;;21.63;10.20;;;7.20;1.00;;;;;;5092922;28;20505;-51
2023/12/16 09:32:26;;;;;;;23.67;10.80;;;7.20;1.00;;;;;;5092830;28;20891;-52
2023/12/16 09:34:51;;;;;;;28.80;11.80;;;7.20;1.00;;;;;;5093371;28;20186;-52
2023/12/16 09:37:17;;;;;;;18.67;9.53;;;7.20;74.20;;;;;;5093368;28;20189;-52
2023/12/16 09:39:43;;;;;;;27.33;11.87;;;7.20;99.90;;;;;;5092091;28;20212;-52
2023/12/16 09:42:10;;;;;;;25.77;11.17;;;7.20;99.90;;;;;;5093457;28;20193;-52
2023/12/16 09:44:37;;;;;;;18.47;10.90;;;7.20;99.90;;;;;;5093019;28;20200;-52
2023/12/16 09:47:04;;;;;;;24.20;10.90;;;7.20;99.90;;;;;;5093072;28;20430;-52
2023/12/16 09:49:30;;;;;;;29.40;12.43;;;7.10;99.90;;;;;;5092849;28;20418;-52
2023/12/16 09:51:55;;;;;;;21.33;11.70;;;7.20;1.00;;;;;;5092156;28;20527;-52
2023/12/16 09:54:21;;;;;;;25.53;12.93;;;7.20;1.00;;;;;;5092891;28;20410;-52
2023/12/16 09:56:49;;;;;;;23.50;11.73;;;7.20;1.00;;;;;;5093562;28;20192;-52
2023/12/16 09:59:16;;;;;;;25.43;12.07;;;7.20;1.00;;;;;;5092816;28;20181;-52
2023/12/16 10:01:52;;;;;;;24.00;12.20;;;7.20;1.00;;;;;;5091693;28;20469;-52
2023/12/16 10:04:21;;;;;;;28.20;12.63;;;7.20;1.00;;;;;;5092798;28;20410;-52
2023/12/16 10:06:46;;;;;;;27.10;14.10;;;7.20;1.00;;;;;;5092869;28;20952;-52
2023/12/16 10:09:13;;;;;;;29.40;14.37;;;7.10;1.00;;;;;;5092385;28;20434;-52
2023/12/16 10:11:40;;;;;;;34.87;13.90;;;7.10;1.00;;;;;;5092267;28;20196;-52
2023/12/16 10:14:06;;;;;;;29.40;14.73;;;7.10;1.00;;;;;;5092511;28;20788;-53
2023/12/16 10:16:32;;;;;;;27.70;14.27;;;7.10;1.00;;;;;;5092728;28;20410;-52
2023/12/16 10:18:58;;;;;;;28.33;15.13;;;7.10;1.00;;;;;;5092764;28;20420;-52
2023/12/16 10:21:27;;;;;;;30.37;14.67;;;7.10;1.00;;;;;;5091748;28;20451;-52
2023/12/16 10:23:55;;;;;;;31.30;14.83;;;7.10;1.00;;;;;;5092394;28;20426;-53
2023/12/16 10:26:21;;;;;;;43.67;16.47;;;7.10;1.00;;;;;;5092255;28;20501;-53
2023/12/16 10:28:47;;;;;;;37.03;16.60;;;7.10;19.40;;;;;;5092200;28;21034;-53
2023/12/16 10:31:18;;;;;;;27.93;15.00;;;7.00;44.50;;;;;;5092313;28;20208;-53
2023/12/16 10:33:44;;;;;;;34.93;17.43;;;7.00;62.00;;;;;;5091428;28;20502;-53
2023/12/16 10:36:10;;;;;;;33.40;16.30;;;7.00;80.80;;;;;;5091929;28;20868;-53
2023/12/16 10:38:35;;;;;;;36.20;17.00;;;7.10;98.80;;;;;;5092200;28;20557;-52
2023/12/16 10:41:01;;;;;;;40.40;18.27;;;7.10;99.30;;;;;;5092463;28;20180;-53
2023/12/16 10:43:27;;;;;;;39.57;18.70;;;7.10;95.70;;;;;;5092085;28;20535;-53
2023/12/16 10:45:54;;;;;;;32.80;17.57;;;7.10;99.90;;;;;;5091236;28;20267;-53
2023/12/16 10:48:21;;;;;;;32.87;18.07;;;7.20;99.90;;;;;;5092623;28;20196;-53
2023/12/16 10:50:48;;;;;;;37.23;19.13;;;7.30;99.90;;;;;;5092001;28;20480;-53
2023/12/16 10:53:31;;;;;;;38.53;17.83;;;7.20;95.40;;;;;;5091660;28;20477;-52
2023/12/16 10:56:03;;;;;;;31.53;17.97;;;7.30;95.00;;;;;;5092018;28;20435;-53
2023/12/16 10:58:31;;;;;;;35.70;18.50;;;7.40;81.90;;;;;;5091124;28;20434;-53
2023/12/16 11:01:13;;;;;;;36.27;18.00;;;7.40;54.10;;;;;;5091742;28;20476;-53
2023/12/16 11:03:48;;;;;;;41.33;18.47;;;7.40;26.00;;;;;;5092112;28;20414;-53
2023/12/16 11:06:21;;;;;;;34.23;18.20;;;7.40;13.30;;;;;;5091320;28;21047;-53
2023/12/16 11:08:47;;;;;;;43.83;18.37;;;7.40;7.80;;;;;;5091756;28;20905;-52
2023/12/16 11:11:16;;;;;;;40.33;19.73;;;7.40;1.00;;;;;;5091542;28;21006;-52
2023/12/16 11:13:42;;;;;;;27.70;17.37;;;7.40;1.00;;;;;;5090897;28;21573;-52
2023/12/16 11:16:19;;;;;;;34.63;17.90;;;7.40;1.00;;;;;;5092448;28;20522;-53
2023/12/16 11:18:49;;;;;;;39.70;17.17;;;7.40;1.00;;;;;;5090774;28;20184;-53
2023/12/16 11:21:19;;;;;;;45.10;18.10;;;7.50;1.00;;;;;;5091915;28;21012;-53
2023/12/16 11:23:45;;;;;;;38.60;19.13;;;7.50;1.00;;;;;;5091719;28;20423;-53
2023/12/16 11:26:12;;;;;;;37.70;17.80;;;7.50;1.00;;;;;;5091098;28;20937;-52
2023/12/16 11:28:37;;;;;;;34.97;17.77;;;7.50;1.00;;;;;;5092035;28;20434;-52
2023/12/16 11:31:03;;;;;;;38.27;19.73;;;7.50;1.00;;;;;;5090454;28;20476;-52
2023/12/16 11:33:43;;;;;;;31.40;18.63;;;7.50;1.00;;;;;;5092024;28;20586;-52
2023/12/16 11:36:09;;;;;;;43.63;23.43;;;7.50;13.70;;;;;;5091414;28;20916;-51
2023/12/16 11:38:34;;;;;;;47.30;22.83;;;7.50;24.30;;;;;;5090856;28;20414;-52
2023/12/16 11:41:00;;;;;;;47.03;24.53;;;7.50;40.00;;;;;;5090936;28;20176;-52
2023/12/16 11:43:46;;;;;;;54.37;26.53;;;7.50;41.10;;;;;;5091492;28;20588;-52
2023/12/16 11:46:31;;;;;;;49.63;26.00;;;7.50;51.20;;;;;;5091637;28;20223;-52
2023/12/16 11:48:57;;;;;;;52.27;27.00;;;7.50;75.20;;;;;;5091424;28;20443;-52
2023/12/16 11:51:23;;;;;;;64.07;27.30;;;7.50;60.50;;;;;;5091433;28;21251;-52
2023/12/16 11:53:51;;;;;;;62.83;27.60;;;7.50;65.20;;;;;;5090726;28;20477;-53
2023/12/16 11:56:16;;;;;;;50.10;28.23;;;7.50;77.50;;;;;;5110911;28;20546;-52
2023/12/16 11:58:42;;;;;;;48.50;27.13;;;7.50;97.60;;;;;;5111591;28;20425;-53
2023/12/16 12:01:07;;;;;;;57.67;30.83;;;7.50;99.90;;;;;;5111886;28;20223;-52
2023/12/16 12:03:33;;;;;;;59.00;30.43;;;7.50;99.90;;;;;;5111591;28;20181;-52
2023/12/16 12:05:59;;;;;;;58.87;29.83;;;7.50;99.90;;;;;;5110549;28;20681;-53
2023/12/16 12:08:24;;;;;;;59.43;30.07;;;7.50;99.90;;;;;;5110929;28;20251;-53
2023/12/16 12:10:50;;;;;;;56.27;32.20;;;7.50;99.90;;;;;;5112436;28;20179;-52
2023/12/16 12:13:15;;;;;;;62.00;32.07;;;7.50;99.90;;;;;;5111288;28;20299;-52
2023/12/16 12:15:41;;;;;;;60.47;31.53;;;7.40;99.90;;;;;;5111260;28;20503;-53
2023/12/16 12:18:06;;;;;;;56.13;30.53;;;7.50;99.90;;;;;;5110646;28;20326;-52
2023/12/16 12:20:32;;;;;;;68.53;32.50;;;7.50;99.90;;;;;;5111252;28;20200;-53
2023/12/16 12:22:58;;;;;;;61.23;31.60;;;7.50;99.90;;;;;;5111474;28;20717;-52
2023/12/16 12:25:24;;;;;;;57.53;31.53;;;7.50;99.90;;;;;;5112838;28;20503;-52
2023/12/16 12:27:49;;;;;;;58.20;31.90;;;7.50;99.90;;;;;;5113944;28;20238;-52
2023/12/16 12:30:18;;;;;;;68.17;33.13;;;7.50;99.90;;;;;;5114585;28;20173;-52
2023/12/16 12:32:44;;;;;;;59.07;31.10;;;7.50;99.90;;;;;;5115340;28;20289;-51
2023/12/16 12:35:11;;;;;;;54.90;32.03;;;7.50;99.90;;;;;;5114965;28;20433;-52
2023/12/16 12:37:37;;;;;;;59.60;30.50;;;7.50;99.90;;;;;;5114698;28;20595;-52
2023/12/16 12:40:05;;;;;;;56.47;29.73;;;7.50;99.90;;;;;;5114559;28;20424;-52
2023/12/16 12:42:48;;;;;;;51.47;30.47;;;7.60;99.90;;;;;;5114563;28;20510;-52
2023/12/16 12:45:29;;;;;;;55.03;29.10;;;7.60;99.90;;;;;;5115084;28;20485;-52